Relevés horaires Semmerzake (Belgique)


Relevés horaires à Semmerzake - Mercredi 14 Juill. 2021
Heure UTC1 Température [°C] Vent [km/h] Hum. [%] Pres.4 [hPa] Visi. [Km] Nébu. [octa] Préc.5 [mm] Cond.
2m. Res. Ros. Dir.2 Vit. Moy. Raf.3
23:00 16.2 15.9 15.0 NNO 11.1 -- 18.5 93 1015(0.5/3h) 8 -- -- --
22:00 16.7 16.5 15.0 NNO 11.1 -- 22.2 90 1015(0.7/3h) 10 -- -- --
21:00 16.8 16.8 15.4 NNO 9.3 -- 20.4 91 1014.7(0.5/3h) 10 -- -- --
20:00 16.6 16.6 15.3 NNO 9.3 -- 18.5 92 1014.5(0.1/3h) 7 -- -- --
19:00 16.2 16.1 15.5 NO 9.3 -- 20.4 96 1014.2(-0.1/3h) 6 -- -- --
18:00 16.2 15.9 15.7 NO 11.1 -- 20.4 97 1014.2(0.1/3h) 5 -- 0.2/12h
NA
17:00 16.2 16.2 15.8 NO 7.4 -- 16.7 97 1014.2(0.0/3h) 3 -- -- Du brouillard ou du brouillard glacé (plus correctement designé sous le nom de brume) est observé et la visibilité n'est ni inférieure à 5/8 de mille ni supérieure à 6 milles
16:00 16.9 16.8 15.5 NNO 11.1 -- 18.5 91 1014.2(0.1/3h) 7 -- -- NA
15:00 17.0 16.9 15.4 NO 11.1 -- 18.5 90 1014.1(-0.3/3h) 12 -- -- --
14:00 16.7 16.7 15.2 NNO 9.3 -- 16.7 91 1014.3(0.0/3h) 7 -- -- --
13:00 17.0 17.0 15.6 NO 7.4 -- 16.7 91 1014.1(0.1/3h) 15 -- -- --
12:00 16.8 16.8 15.0 NNO 7.4 -- 18.5 89 1014.3(0.5/3h) 12 -- -- NA
11:00 16.2 16.2 14.8 NNO 7.4 -- 16.7 91 1014.3(0.7/3h) 14 -- -- --
10:00 15.6 15.6 14.8 NNO 7.4 -- 14.8 95 1014.1(0.6/3h) 8 -- -- --
09:00 15.6 15.4 14.4 NNO 9.3 -- 16.7 93 1013.8(0.6/3h) 6 -- -- NA
08:00 15.5 15.5 14.5 NNO 7.4 -- 14.8 94 1013.7(0.5/3h) 4.4 -- -- Du brouillard ou du brouillard glacé (plus correctement designé sous le nom de brume) est observé et la visibilité n'est ni inférieure à 5/8 de mille ni supérieure à 6 milles
07:00 15.6 15.6 14.3 NNO 7.4 -- 13.0 92 1013.3(0.7/3h) 6 -- -- --
06:00 16.0 16.0 14.3 NNO 7.4 -- 16.7 90 1013.2(0.3/3h) 14 -- -- --
05:00 15.9 15.8 14.0 NNO 9.3 -- 16.7 88 1013.1(-0.1/3h) 15 -- -- --
04:00 15.6 15.6 13.6 NO 7.4 -- 13.0 88 1012.7(-0.5/3h) 14 -- -- --
03:00 15.7 15.7 13.6 NNO 7.4 -- 14.8 87 1012.8(-0.3/3h) 13 -- -- --
02:00 15.6 15.6 13.4 NNO 5.6 -- 14.8 87 1013.2(0.0/3h) 13 -- -- --
01:00 15.8 15.8 13.5 NNO 7.4 -- 14.8 86 1013.1(0.1/3h) 13 -- -- --
00:00 15.8 15.8 13.7 N 7.4 -- 18.5 87 1013.1(0.0/3h) 13 -- -- NA

1 Coordinated Universal Time. Actuellement il est 23:00 locale et 21:00 UTC.

2 Le vent souffle depuis la direction indiquée vers la direction oposée.

3 Les rafales max. sont disponible 40 min après l'heure du relevé.

4 Pour les stations d'altitude (plus de 600m) le géopotentiel du niveau le plus proche de la pression obligatoire est indiqué.

5 Les stations disposant d'un diffuseur peuvent indiquer "trace". Cela signifie que des précipitations ont touchés le sol mais que la quantité est inférieure à 0.1 mm.

Récapitulatif de la journée
Température [°C] Vent [km/h] Ensoleillement4 [h] Precipitations totale5 [mm] Pression [Hpa]
Min1 Max.2 Moy.3 Max. Min Max.
15.6 17.2 0 22.2 0 h 0 min 0 1012.7 1015.0

1 Température minimale relevée entre 18:00 UTC la veille et 18:00 UTC le jour donné.

2 Température maximale relevée entre 06:00 UTC le jour donné et 06:00 UTC le lendemain.

3 Vent moyen de la journée basé sur les relevés horaires.

4 Ensoleillement en heures relevé entre 06:00 UTC la veille et 06:00 UTC le jour donné.

5 Précipitations totales tombées entre 06:00 UTC la jour donné et 06:00 UTC le lendemain.

Graphiques horaires